Time;durP1;ratioP1;P1;durP2;ratioP2;P2;SDS_P1;SDS_P2;PMS_P1;PMS_P2;Temp;Humidity;BMP_temperature;BMP_pressure;BME280_temperature;BME280_humidity;BME280_pressure;Samples;Min_cycle;Max_cycle;Signal;HPM_P1;HPM_P2
2021/10/28 00:13:25;;;;;;;23.63;16.50;;;;;;;;;;5055440;28;20031;-57
2021/10/28 00:15:57;;;;;;;21.75;15.88;;;;;;;;;;5054875;28;20092;-57
2021/10/28 00:18:38;;;;;;;23.65;16.17;;;;;;;;;;5054557;28;20028;-57
2021/10/28 00:21:05;;;;;;;22.58;14.88;;;;;;;;;;5055399;28;20029;-56
2021/10/28 00:23:36;;;;;;;21.23;16.17;;;;;;;;;;5054939;28;20490;-57
2021/10/28 00:26:02;;;;;;;;;;;;;;;;;;5055437;28;20071;-57
2021/10/28 00:28:28;;;;;;;20.63;14.02;;;;;;;;;;5054116;28;20304;-57
2021/10/28 00:30:54;;;;;;;18.55;14.68;;;;;;;;;;5054996;28;20040;-57
2021/10/28 00:33:20;;;;;;;26.52;16.02;;;;;;;;;;5055197;28;20032;-57
2021/10/28 00:35:46;;;;;;;18.77;15.32;;;;;;;;;;5054823;28;20029;-57
2021/10/28 00:38:12;;;;;;;20.88;17.13;;;;;;;;;;5054029;28;20029;-57
2021/10/28 00:40:38;;;;;;;25.58;16.98;;;;;;;;;;5054539;28;20036;-57
2021/10/28 00:43:04;;;;;;;18.63;15.50;;;;;;;;;;5054891;28;20086;-57
2021/10/28 00:45:30;;;;;;;25.25;17.23;;;;;;;;;;5054627;28;20036;-57
2021/10/28 00:47:56;;;;;;;23.23;16.67;;;;;;;;;;5053651;28;20033;-56
2021/10/28 00:50:22;;;;;;;22.15;17.70;;;;;;;;;;5054512;28;20078;-56
2021/10/28 00:52:48;;;;;;;23.30;18.20;;;;;;;;;;5054581;28;20025;-56
2021/10/28 00:55:14;;;;;;;24.83;17.58;;;;;;;;;;5052840;28;20406;-57
2021/10/28 00:57:41;;;;;;;22.63;16.75;;;;;;;;;;5053851;28;20360;-56
2021/10/28 01:00:07;;;;;;;24.70;17.35;;;;;;;;;;5054458;28;20465;-56
2021/10/28 01:02:33;;;;;;;19.73;16.05;;;;;;;;;;5054228;28;20104;-57
2021/10/28 01:04:59;;;;;;;21.77;17.30;;;;;;;;;;5054102;28;20082;-57
2021/10/28 01:07:26;;;;;;;21.42;16.55;;;;;;;;;;5053524;28;20029;-57
2021/10/28 01:09:52;;;;;;;19.20;15.95;;;;;;;;;;5053895;28;20060;-57
2021/10/28 01:12:18;;;;;;;18.75;15.77;;;;;;;;;;5054362;28;20061;-57
2021/10/28 01:14:45;;;;;;;19.23;15.60;;;;;;;;;;5054069;28;20112;-56
2021/10/28 01:17:11;;;;;;;16.92;14.30;;;;;;;;;;5053259;28;20112;-57
2021/10/28 01:19:38;;;;;;;20.95;15.13;;;;;;;;;;5053959;28;20025;-57
2021/10/28 01:22:04;;;;;;;21.08;15.38;;;;;;;;;;5053591;28;20111;-57
2021/10/28 01:24:30;;;;;;;20.67;15.32;;;;;;;;;;5053008;28;20021;-57
2021/10/28 01:27:03;;;;;;;20.02;15.98;;;;;;;;;;5053294;28;20025;-56
2021/10/28 01:29:30;;;;;;;19.77;15.70;;;;;;;;;;5053881;28;20123;-57
2021/10/28 01:31:56;;;;;;;16.38;13.52;;;;;;;;;;5053798;28;20032;-57
2021/10/28 01:34:22;;;;;;;18.92;15.57;;;;;;;;;;5053410;28;20364;-58
2021/10/28 01:36:48;;;;;;;20.85;15.48;;;;;;;;;;5053185;28;20043;-57
2021/10/28 01:39:15;;;;;;;27.67;16.13;;;;;;;;;;5053861;28;20037;-57
2021/10/28 01:41:42;;;;;;;21.05;15.10;;;;;;;;;;5053682;28;20112;-56
2021/10/28 01:44:08;;;;;;;20.40;14.85;;;;;;;;;;5053631;28;20033;-57
2021/10/28 01:46:34;;;;;;;19.13;15.50;;;;;;;;;;5052873;28;20536;-57
2021/10/28 01:49:00;;;;;;;23.80;15.63;;;;;;;;;;5053328;28;20025;-57
2021/10/28 01:51:26;;;;;;;22.08;16.40;;;;;;;;;;5053272;28;20021;-56
2021/10/28 01:53:52;;;;;;;23.98;15.05;;;;;;;;;;5053401;28;20044;-57
2021/10/28 01:56:18;;;;;;;23.23;16.88;;;;;;;;;;5052578;28;20032;-57
2021/10/28 01:58:47;;;;;;;18.38;15.55;;;;;;;;;;5053369;28;20033;-56
2021/10/28 02:01:13;;;;;;;22.83;16.23;;;;;;;;;;5053167;28;20086;-56
2021/10/28 02:03:39;;;;;;;20.75;16.05;;;;;;;;;;5052973;28;20029;-57
2021/10/28 02:06:05;;;;;;;21.55;15.70;;;;;;;;;;5052638;28;20031;-56
2021/10/28 02:08:31;;;;;;;20.50;15.02;;;;;;;;;;5052692;28;20455;-57
2021/10/28 02:10:57;;;;;;;20.80;14.77;;;;;;;;;;5053068;28;20117;-57
2021/10/28 02:13:23;;;;;;;19.42;14.27;;;;;;;;;;5053344;28;20035;-57
2021/10/28 02:15:49;;;;;;;17.58;13.35;;;;;;;;;;5052766;28;20025;-57
2021/10/28 02:18:15;;;;;;;22.40;15.45;;;;;;;;;;5052133;28;20035;-56
2021/10/28 02:20:41;;;;;;;18.05;13.93;;;;;;;;;;5052560;28;20099;-57
2021/10/28 02:23:08;;;;;;;21.10;14.38;;;;;;;;;;5053056;28;20426;-57
2021/10/28 02:25:34;;;;;;;15.32;13.35;;;;;;;;;;5052830;28;20197;-57
2021/10/28 02:28:00;;;;;;;16.33;11.98;;;;;;;;;;5051949;28;20107;-55
2021/10/28 02:30:27;;;;;;;15.48;13.07;;;;;;;;;;5052709;28;20082;-56
2021/10/28 02:32:53;;;;;;;16.95;13.95;;;;;;;;;;5052807;28;20071;-57
2021/10/28 02:35:19;;;;;;;15.25;13.27;;;;;;;;;;5051781;28;20025;-56
2021/10/28 02:37:46;;;;;;;20.65;14.70;;;;;;;;;;5051882;28;20021;-56
2021/10/28 02:40:12;;;;;;;19.00;15.23;;;;;;;;;;5052530;28;20114;-57
2021/10/28 02:42:38;;;;;;;16.27;12.55;;;;;;;;;;5052575;28;20033;-54
2021/10/28 02:45:04;;;;;;;18.60;14.63;;;;;;;;;;5052416;28;20111;-57
2021/10/28 02:47:30;;;;;;;13.50;12.02;;;;;;;;;;5051739;28;20048;-57
2021/10/28 02:49:57;;;;;;;15.05;11.73;;;;;;;;;;5052057;28;20540;-56
2021/10/28 02:52:23;;;;;;;16.17;12.80;;;;;;;;;;5052536;28;20102;-57
2021/10/28 02:54:49;;;;;;;14.70;13.10;;;;;;;;;;5052560;28;20075;-57
2021/10/28 02:57:15;;;;;;;16.05;13.60;;;;;;;;;;5051657;28;20028;-57
2021/10/28 02:59:41;;;;;;;15.98;12.45;;;;;;;;;;5052227;28;20467;-57
2021/10/28 03:02:07;;;;;;;17.20;13.18;;;;;;;;;;5049107;28;20079;-56
2021/10/28 03:04:33;;;;;;;17.83;13.52;;;;;;;;;;5032033;28;20440;-57
2021/10/28 03:06:59;;;;;;;17.00;12.52;;;;;;;;;;5031658;28;20022;-57
2021/10/28 03:09:27;;;;;;;16.70;12.57;;;;;;;;;;5032430;28;20021;-57
2021/10/28 03:11:55;;;;;;;12.48;11.18;;;;;;;;;;5032259;28;20064;-57
2021/10/28 03:14:29;;;;;;;18.55;13.32;;;;;;;;;;5032134;28;20025;-57
2021/10/28 03:17:01;;;;;;;22.85;13.50;;;;;;;;;;5031271;28;20036;-56
2021/10/28 03:19:41;;;;;;;16.02;11.95;;;;;;;;;;5032130;28;20034;-56
2021/10/28 03:27:37;;;;;;;16.60;13.23;;;;;;;;;;5031550;28;20451;-56
2021/10/28 03:30:03;;;;;;;14.70;12.38;;;;;;;;;;5032325;28;20101;-56
2021/10/28 03:32:29;;;;;;;17.50;11.63;;;;;;;;;;5027033;28;20030;-58
2021/10/28 03:34:56;;;;;;;13.90;11.93;;;;;;;;;;5031913;28;20049;-57
2021/10/28 03:37:36;;;;;;;14.70;13.10;;;;;;;;;;5031095;28;20128;-57
2021/10/28 03:45:37;;;;;;;17.67;12.40;;;;;;;;;;5031933;28;20040;-57
2021/10/28 03:56:35;;;;;;;15.95;12.32;;;;;;;;;;5055544;28;20513;-57
2021/10/28 04:18:27;;;;;;;14.35;11.43;;;;;;;;;;5054914;28;20032;-57
2021/10/28 04:31:29;;;;;;;17.55;13.40;;;;;;;;;;5054836;28;20036;-57
2021/10/28 04:33:55;;;;;;;17.83;13.60;;;;;;;;;;5054753;28;20029;-57
2021/10/28 04:36:28;;;;;;;15.60;12.10;;;;;;;;;;5053661;28;20040;-57
2021/10/28 04:38:54;;;;;;;16.15;12.75;;;;;;;;;;5055139;28;20094;-57
2021/10/28 04:41:20;;;;;;;15.85;12.93;;;;;;;;;;5054747;28;20478;-57
2021/10/28 04:43:46;;;;;;;18.13;12.85;;;;;;;;;;5054854;28;20025;-58
2021/10/28 04:46:12;;;;;;;13.60;11.68;;;;;;;;;;5053740;28;20036;-58
2021/10/28 04:48:38;;;;;;;14.77;12.70;;;;;;;;;;5054172;28;20105;-57
2021/10/28 04:51:04;;;;;;;15.07;11.63;;;;;;;;;;5054596;28;20064;-56
2021/10/28 04:53:30;;;;;;;13.23;11.82;;;;;;;;;;5054241;28;20036;-58
2021/10/28 04:55:56;;;;;;;15.90;12.95;;;;;;;;;;5054314;28;20029;-57
2021/10/28 04:58:23;;;;;;;14.90;13.35;;;;;;;;;;5053211;28;20463;-57
2021/10/28 05:00:49;;;;;;;16.95;13.15;;;;;;;;;;5054005;28;20025;-57
2021/10/28 05:03:15;;;;;;;18.02;14.93;;;;;;;;;;5053669;28;20032;-55
2021/10/28 05:05:41;;;;;;;16.67;13.20;;;;;;;;;;5054450;28;20017;-57
2021/10/28 05:08:07;;;;;;;14.55;11.80;;;;;;;;;;5053460;28;20021;-57
2021/10/28 05:10:34;;;;;;;16.27;12.43;;;;;;;;;;5054644;28;20028;-57
2021/10/28 05:13:00;;;;;;;23.80;12.93;;;;;;;;;;5053894;28;20060;-56
2021/10/28 05:15:26;;;;;;;14.05;12.43;;;;;;;;;;5054131;28;20048;-57
2021/10/28 05:17:52;;;;;;;17.48;12.55;;;;;;;;;;5051160;28;20024;-56
2021/10/28 05:20:18;;;;;;;18.88;12.93;;;;;;;;;;5054022;28;20025;-58
2021/10/28 05:22:44;;;;;;;17.95;13.55;;;;;;;;;;5047166;28;20081;-57
2021/10/28 05:25:10;;;;;;;16.55;14.10;;;;;;;;;;5050085;28;20037;-57
2021/10/28 05:27:36;;;;;;;16.48;13.32;;;;;;;;;;5058621;28;20024;-57
2021/10/28 05:30:04;;;;;;;15.43;13.38;;;;;;;;;;5073690;28;20030;-57
2021/10/28 05:32:33;;;;;;;16.05;14.35;;;;;;;;;;5059830;28;20021;-57
2021/10/28 05:35:00;;;;;;;18.63;15.00;;;;;;;;;;5056608;28;20020;-54
2021/10/28 05:37:29;;;;;;;17.77;13.98;;;;;;;;;;5052039;28;20065;-57
2021/10/28 05:39:56;;;;;;;16.13;14.18;;;;;;;;;;5046419;28;20047;-57
2021/10/28 05:42:22;;;;;;;17.83;15.05;;;;;;;;;;5053153;28;20095;-56
2021/10/28 05:44:48;;;;;;;17.85;13.82;;;;;;;;;;5052388;28;20045;-57
2021/10/28 05:47:14;;;;;;;28.30;15.52;;;;;;;;;;5052404;28;20052;-57
2021/10/28 05:49:41;;;;;;;19.23;15.52;;;;;;;;;;5052905;28;20021;-56
2021/10/28 05:52:07;;;;;;;18.67;14.68;;;;;;;;;;5052460;28;20032;-57
2021/10/28 05:54:33;;;;;;;22.20;14.73;;;;;;;;;;5052071;28;20075;-56
2021/10/28 05:56:59;;;;;;;18.08;14.35;;;;;;;;;;5051384;28;20052;-57
2021/10/28 05:59:25;;;;;;;21.50;13.95;;;;;;;;;;5052161;28;20029;-57
2021/10/28 06:01:50;;;;;;;16.38;13.43;;;;;;;;;;5052190;28;20033;-58
2021/10/28 06:04:16;;;;;;;16.63;14.90;;;;;;;;;;5051998;28;20092;-57
2021/10/28 06:06:42;;;;;;;17.58;14.93;;;;;;;;;;5056559;28;20060;-57
2021/10/28 06:09:08;;;;;;;20.58;13.85;;;;;;;;;;5051514;28;20029;-56
2021/10/28 06:11:34;;;;;;;17.65;14.82;;;;;;;;;;5052265;28;20029;-58
2021/10/28 06:14:00;;;;;;;15.02;11.85;;;;;;;;;;5051513;28;20119;-57
2021/10/28 06:16:27;;;;;;;29.20;13.30;;;;;;;;;;5050176;28;20032;-56
2021/10/28 06:18:53;;;;;;;14.23;12.70;;;;;;;;;;5051926;28;20032;-56
2021/10/28 06:21:24;;;;;;;15.27;11.82;;;;;;;;;;5051391;28;20178;-56
2021/10/28 06:23:50;;;;;;;22.25;11.75;;;;;;;;;;5051828;28;20033;-59
2021/10/28 06:26:18;;;;;;;18.35;13.57;;;;;;;;;;5051194;28;20087;-59
2021/10/28 06:28:44;;;;;;;13.05;11.10;;;;;;;;;;5051712;28;20051;-61
2021/10/28 06:31:10;;;;;;;15.32;12.52;;;;;;;;;;5052613;28;20032;-59
2021/10/28 06:33:45;;;;;;;22.85;14.88;;;;;;;;;;5052584;28;20013;-58
2021/10/28 06:36:12;;;;;;;17.40;12.98;;;;;;;;;;5052253;28;20033;-56
2021/10/28 06:38:39;;;;;;;15.32;11.88;;;;;;;;;;5052200;28;20467;-55
2021/10/28 06:41:05;;;;;;;16.13;12.70;;;;;;;;;;5051654;28;20036;-56
2021/10/28 06:43:31;;;;;;;12.52;11.27;;;;;;;;;;5052490;28;20533;-56
2021/10/28 06:45:57;;;;;;;13.55;11.65;;;;;;;;;;5052314;28;20032;-56
2021/10/28 06:48:23;;;;;;;20.95;12.30;;;;;;;;;;5051467;28;20021;-56
2021/10/28 06:50:55;;;;;;;13.90;11.15;;;;;;;;;;5052553;28;20473;-56
2021/10/28 06:53:25;;;;;;;12.82;11.15;;;;;;;;;;5052337;28;20028;-56
2021/10/28 07:03:47;;;;;;;11.38;10.23;;;;;;;;;;5052193;28;20045;-56
2021/10/28 07:06:19;;;;;;;14.55;12.02;;;;;;;;;;5051467;28;20079;-56
2021/10/28 07:08:49;;;;;;;15.32;12.27;;;;;;;;;;5052044;28;20068;-56
2021/10/28 07:11:24;;;;;;;13.30;11.73;;;;;;;;;;5052280;28;20029;-55
2021/10/28 07:13:51;;;;;;;12.13;10.90;;;;;;;;;;5052112;28;20029;-56
2021/10/28 07:16:24;;;;;;;12.93;11.52;;;;;;;;;;5051353;28;20463;-56
2021/10/28 07:34:54;;;;;;;16.25;12.98;;;;;;;;;;5055805;28;20390;-56
2021/10/28 08:18:33;;;;;;;15.82;13.07;;;;;;;;;;5054552;28;20036;-57
2021/10/28 08:29:23;;;;;;;20.20;14.30;;;;;;;;;;5054928;28;20032;-57
2021/10/28 08:31:50;;;;;;;16.10;12.75;;;;;;;;;;5054492;28;20644;-56
2021/10/28 08:34:20;;;;;;;17.70;14.98;;;;;;;;;;5054782;28;20029;-57
2021/10/28 08:36:50;;;;;;;17.00;14.20;;;;;;;;;;5053966;28;20041;-55
2021/10/28 08:39:17;;;;;;;15.38;12.65;;;;;;;;;;5054698;28;20041;-56
2021/10/28 08:41:44;;;;;;;19.45;14.50;;;;;;;;;;5054806;28;20064;-56
2021/10/28 08:44:11;;;;;;;15.52;13.23;;;;;;;;;;5054527;28;20463;-57
2021/10/28 08:46:41;;;;;;;22.70;15.65;;;;;;;;;;5054214;28;20049;-57
2021/10/28 08:49:14;;;;;;;18.27;15.25;;;;;;;;;;5054574;28;20033;-56
2021/10/28 08:51:49;;;;;;;20.27;15.18;;;;;;;;;;5054562;28;20033;-56
2021/10/28 08:57:19;;;;;;;18.15;15.10;;;;;;;;;;5054012;28;20104;-56
2021/10/28 09:24:36;;;;;;;20.65;16.33;;;;;;;;;;5058375;28;20039;-56
2021/10/28 09:27:08;;;;;;;19.17;14.38;;;;;;;;;;5051922;28;20403;-56
2021/10/28 09:32:37;;;;;;;24.08;15.77;;;;;;;;;;5052348;28;20051;-57
2021/10/28 09:43:35;;;;;;;19.55;15.32;;;;;;;;;;5053162;28;20178;-57
2021/10/28 09:51:21;;;;;;;19.13;16.00;;;;;;;;;;5052905;28;20276;-55
2021/10/28 09:59:47;;;;;;;17.25;15.20;;;;;;;;;;5053022;28;20065;-56
2021/10/28 10:02:33;;;;;;;21.25;17.95;;;;;;;;;;5051772;28;20064;-56
2021/10/28 10:05:21;;;;;;;19.83;14.65;;;;;;;;;;5052132;28;20427;-57
2021/10/28 10:07:58;;;;;;;23.52;16.10;;;;;;;;;;5051259;28;20028;-57
2021/10/28 10:10:29;;;;;;;23.63;16.05;;;;;;;;;;5051582;28;20127;-56
2021/10/28 10:12:56;;;;;;;20.25;15.90;;;;;;;;;;5037045;28;20112;-56
2021/10/28 10:15:22;;;;;;;19.98;15.82;;;;;;;;;;5052300;28;20075;-57
2021/10/28 10:17:52;;;;;;;18.58;15.68;;;;;;;;;;5051396;28;20017;-57
2021/10/28 10:20:20;;;;;;;19.45;16.23;;;;;;;;;;5055020;28;20029;-57
2021/10/28 11:27:15;;;;;;;15.00;13.32;;;;;;;;;;5047785;28;20063;-58
2021/10/28 12:20:19;;;;;;;12.32;10.77;;;;;;;;;;5053724;28;20067;-58
2021/10/28 12:28:09;;;;;;;16.38;11.50;;;;;;;;;;5048706;28;20139;-58
2021/10/28 12:53:24;;;;;;;12.48;10.65;;;;;;;;;;5024630;28;20047;-57
2021/10/28 13:58:19;;;;;;;13.18;9.93;;;;;;;;;;5049682;28;20529;-57
2021/10/28 14:31:25;;;;;;;9.80;8.80;;;;;;;;;;5051961;28;20158;-57
2021/10/28 15:28:45;;;;;;;10.10;8.75;;;;;;;;;;5049885;28;20043;-57
2021/10/28 15:36:33;;;;;;;9.95;8.30;;;;;;;;;;5050177;28;20063;-57
2021/10/28 15:42:16;;;;;;;12.95;7.93;;;;;;;;;;5051159;28;20032;-57
2021/10/28 16:01:03;;;;;;;9.25;6.88;;;;;;;;;;5044552;28;20179;-58
2021/10/28 16:22:43;;;;;;;9.63;8.65;;;;;;;;;;5053431;28;20040;-57
2021/10/28 16:25:09;;;;;;;9.45;8.43;;;;;;;;;;5053860;28;20029;-59
2021/10/28 16:27:35;;;;;;;11.48;9.23;;;;;;;;;;5037632;28;20048;-58
2021/10/28 16:30:02;;;;;;;10.13;8.75;;;;;;;;;;5054182;28;20381;-58
2021/10/28 16:32:28;;;;;;;11.63;9.52;;;;;;;;;;5054289;28;20067;-58
2021/10/28 16:34:54;;;;;;;10.15;8.30;;;;;;;;;;5053272;28;20092;-59
2021/10/28 16:37:20;;;;;;;11.65;9.48;;;;;;;;;;5052621;28;20091;-59
2021/10/28 16:39:46;;;;;;;10.57;8.93;;;;;;;;;;5054191;28;20086;-59
2021/10/28 16:42:12;;;;;;;11.63;8.80;;;;;;;;;;5054293;28;20426;-59
2021/10/28 16:44:41;;;;;;;14.18;8.40;;;;;;;;;;5049794;28;20021;-58
2021/10/28 16:47:07;;;;;;;12.20;8.40;;;;;;;;;;5059480;28;20029;-58
2021/10/28 16:49:33;;;;;;;10.20;7.88;;;;;;;;;;5058693;28;20025;-58
2021/10/28 16:51:59;;;;;;;13.18;8.85;;;;;;;;;;5054458;28;20430;-59
2021/10/28 16:54:26;;;;;;;11.07;8.77;;;;;;;;;;5053740;28;20075;-59
2021/10/28 16:56:52;;;;;;;10.70;9.48;;;;;;;;;;5053307;28;20021;-58
2021/10/28 16:59:18;;;;;;;11.98;9.45;;;;;;;;;;5053972;28;20425;-58
2021/10/28 17:01:45;;;;;;;11.70;9.55;;;;;;;;;;5053565;28;20025;-59
2021/10/28 17:04:10;;;;;;;13.68;10.07;;;;;;;;;;5053579;28;20029;-59
2021/10/28 17:06:36;;;;;;;12.98;10.57;;;;;;;;;;5053396;28;20499;-57
2021/10/28 17:09:07;;;;;;;11.35;9.13;;;;;;;;;;5055126;28;20029;-59
2021/10/28 17:11:33;;;;;;;14.77;10.63;;;;;;;;;;5065060;28;20394;-59
2021/10/28 17:13:59;;;;;;;13.25;10.52;;;;;;;;;;5053729;28;20044;-58
2021/10/28 17:16:26;;;;;;;13.70;9.35;;;;;;;;;;5053027;28;20021;-59
2021/10/28 17:18:52;;;;;;;12.63;11.30;;;;;;;;;;5054416;28;20505;-57
2021/10/28 17:21:18;;;;;;;12.85;8.98;;;;;;;;;;5052214;28;20036;-57
2021/10/28 17:23:49;;;;;;;12.50;9.65;;;;;;;;;;5051463;28;20028;-58
2021/10/28 17:26:16;;;;;;;13.50;9.77;;;;;;;;;;5052698;28;20427;-59
2021/10/28 17:28:43;;;;;;;15.18;10.00;;;;;;;;;;5052375;28;20074;-58
2021/10/28 17:31:10;;;;;;;12.85;10.43;;;;;;;;;;5051631;28;20086;-58
2021/10/28 17:33:36;;;;;;;16.38;11.85;;;;;;;;;;5044626;28;20035;-59
2021/10/28 17:36:04;;;;;;;14.27;10.45;;;;;;;;;;5052849;28;20475;-58
2021/10/28 17:38:30;;;;;;;12.35;10.90;;;;;;;;;;5052021;28;20047;-58
2021/10/28 17:40:56;;;;;;;13.85;11.57;;;;;;;;;;5052894;28;20037;-59
2021/10/28 17:43:25;;;;;;;13.65;10.88;;;;;;;;;;5053158;28;20029;-59
2021/10/28 17:45:56;;;;;;;16.02;10.60;;;;;;;;;;5052993;28;20459;-58
2021/10/28 17:48:22;;;;;;;12.82;10.88;;;;;;;;;;5052556;28;20104;-58
2021/10/28 17:50:48;;;;;;;12.55;10.45;;;;;;;;;;5053252;28;20075;-59
2021/10/28 17:53:14;;;;;;;11.68;9.93;;;;;;;;;;5052800;28;20101;-58
2021/10/28 17:55:40;;;;;;;13.27;10.68;;;;;;;;;;5052888;28;20107;-59
2021/10/28 17:58:06;;;;;;;11.88;10.10;;;;;;;;;;5052375;28;20039;-58
2021/10/28 18:00:33;;;;;;;15.57;12.30;;;;;;;;;;5052833;28;20439;-58
2021/10/28 18:03:00;;;;;;;10.75;9.20;;;;;;;;;;5052466;28;20432;-59
2021/10/28 18:05:26;;;;;;;11.48;10.32;;;;;;;;;;5051868;28;20044;-59
2021/10/28 18:07:52;;;;;;;12.57;10.60;;;;;;;;;;5051741;28;20459;-59
2021/10/28 18:10:18;;;;;;;10.05;9.05;;;;;;;;;;5052162;28;20534;-58
2021/10/28 18:12:45;;;;;;;13.55;10.27;;;;;;;;;;5052122;28;20056;-57
2021/10/28 18:15:11;;;;;;;12.30;10.70;;;;;;;;;;5052774;28;20040;-58
2021/10/28 18:17:37;;;;;;;10.82;9.75;;;;;;;;;;5050598;28;20051;-58
2021/10/28 18:20:04;;;;;;;14.85;10.13;;;;;;;;;;5052718;28;20037;-58
2021/10/28 18:22:36;;;;;;;12.32;11.02;;;;;;;;;;5051691;28;20421;-59
2021/10/28 18:25:02;;;;;;;14.98;11.23;;;;;;;;;;5052382;28;20063;-58
2021/10/28 18:27:27;;;;;;;13.95;10.75;;;;;;;;;;5051140;28;20033;-59
2021/10/28 18:29:53;;;;;;;12.63;11.27;;;;;;;;;;5052601;28;20041;-59
2021/10/28 18:32:20;;;;;;;14.88;12.48;;;;;;;;;;5052090;28;20451;-59
2021/10/28 18:34:46;;;;;;;13.32;10.95;;;;;;;;;;5051187;28;20037;-59
2021/10/28 18:37:12;;;;;;;11.07;9.93;;;;;;;;;;5051604;28;20370;-58
2021/10/28 18:39:40;;;;;;;15.48;10.15;;;;;;;;;;5051970;28;20032;-59
2021/10/28 18:42:06;;;;;;;12.05;10.13;;;;;;;;;;5052103;28;20044;-57
2021/10/28 18:44:32;;;;;;;10.35;9.35;;;;;;;;;;5052214;28;20082;-58
2021/10/28 18:46:59;;;;;;;14.20;9.73;;;;;;;;;;5051464;28;20391;-58
2021/10/28 18:49:25;;;;;;;15.25;10.68;;;;;;;;;;5051924;28;20581;-58
2021/10/28 18:51:51;;;;;;;14.65;12.43;;;;;;;;;;5051829;28;20387;-58
2021/10/28 18:54:18;;;;;;;17.98;12.82;;;;;;;;;;5051708;28;20025;-58
2021/10/28 18:56:46;;;;;;;19.20;13.75;;;;;;;;;;5051162;28;20043;-58
2021/10/28 18:59:12;;;;;;;18.00;14.35;;;;;;;;;;5052447;28;20368;-57
2021/10/28 19:01:38;;;;;;;18.17;13.27;;;;;;;;;;5051337;28;20033;-57
2021/10/28 19:04:04;;;;;;;12.68;11.25;;;;;;;;;;5051831;28;20029;-57
2021/10/28 19:06:30;;;;;;;17.13;13.27;;;;;;;;;;5051212;28;20033;-59
2021/10/28 19:08:56;;;;;;;15.88;13.40;;;;;;;;;;5051968;28;20436;-58
2021/10/28 19:11:24;;;;;;;15.18;11.93;;;;;;;;;;5051630;28;20171;-58
2021/10/28 19:13:50;;;;;;;12.77;11.48;;;;;;;;;;5051528;28;20398;-58
2021/10/28 19:16:17;;;;;;;14.07;12.10;;;;;;;;;;5050961;28;20029;-56
2021/10/28 19:18:44;;;;;;;14.88;11.77;;;;;;;;;;5045366;28;20064;-57
2021/10/28 19:21:12;;;;;;;13.55;12.15;;;;;;;;;;5050777;28;20091;-57
2021/10/28 19:23:39;;;;;;;17.10;13.27;;;;;;;;;;5051537;28;20429;-57
2021/10/28 19:26:05;;;;;;;15.77;12.98;;;;;;;;;;5052113;28;20037;-60
2021/10/28 19:28:31;;;;;;;16.35;11.68;;;;;;;;;;5049858;28;20033;-59
2021/10/28 19:31:06;;;;;;;15.05;13.07;;;;;;;;;;5052019;28;20067;-57
2021/10/28 19:33:41;;;;;;;14.80;11.45;;;;;;;;;;5052017;28;20068;-58
2021/10/28 19:36:11;;;;;;;14.43;12.70;;;;;;;;;;5051749;28;20037;-58
2021/10/28 19:38:48;;;;;;;14.60;11.82;;;;;;;;;;5051123;28;20036;-58
2021/10/28 19:47:04;;;;;;;13.18;11.20;;;;;;;;;;5031113;28;20530;-59
2021/10/28 19:49:30;;;;;;;11.82;10.60;;;;;;;;;;5051911;28;20033;-57
2021/10/28 19:51:56;;;;;;;19.35;11.90;;;;;;;;;;5051540;28;20037;-58
2021/10/28 19:54:22;;;;;;;15.48;12.00;;;;;;;;;;5051761;28;20251;-57
2021/10/28 19:56:49;;;;;;;14.10;12.05;;;;;;;;;;5050302;28;20068;-59
2021/10/28 19:59:17;;;;;;;13.10;11.25;;;;;;;;;;5051262;28;20021;-58
2021/10/28 20:01:56;;;;;;;18.88;13.23;;;;;;;;;;5051547;28;20045;-58
2021/10/28 20:07:26;;;;;;;16.23;11.48;;;;;;;;;;5011061;28;20044;-58
2021/10/28 20:20:04;;;;;;;17.63;11.60;;;;;;;;;;5050311;28;20044;-59
2021/10/28 20:20:48;;;;;;;13.90;11.23;;;;;;;;;;5051227;28;20515;-58
2021/10/28 20:23:14;;;;;;;13.68;11.13;;;;;;;;;;5051484;28;20059;-56
2021/10/28 20:25:40;;;;;;;12.55;10.88;;;;;;;;;;5051338;28;20052;-57
2021/10/28 20:28:08;;;;;;;18.70;11.35;;;;;;;;;;5050959;28;20109;-58
2021/10/28 20:30:48;;;;;;;19.67;12.77;;;;;;;;;;5054901;28;20033;-57
2021/10/28 20:33:14;;;;;;;12.87;11.50;;;;;;;;;;5054603;28;20104;-57
2021/10/28 20:38:15;;;;;;;18.33;12.25;;;;;;;;;;5054300;28;20036;-57
2021/10/28 20:40:42;;;;;;;12.93;11.18;;;;;;;;;;5054721;28;20083;-57
2021/10/28 20:43:08;;;;;;;15.45;12.50;;;;;;;;;;5054853;28;20029;-57
2021/10/28 20:45:34;;;;;;;16.33;12.15;;;;;;;;;;5054960;28;20036;-56
2021/10/28 20:48:00;;;;;;;14.90;11.65;;;;;;;;;;5053822;28;20060;-58
2021/10/28 20:50:28;;;;;;;14.68;11.30;;;;;;;;;;5054791;28;20025;-58
2021/10/28 20:52:54;;;;;;;16.83;12.88;;;;;;;;;;5054973;28;20035;-58
2021/10/28 20:55:20;;;;;;;15.77;13.07;;;;;;;;;;5054532;28;20517;-58
2021/10/28 20:57:48;;;;;;;17.85;13.38;;;;;;;;;;5053776;28;20029;-58
2021/10/28 21:00:16;;;;;;;15.07;13.45;;;;;;;;;;5053204;28;20049;-58
2021/10/28 21:02:42;;;;;;;18.40;12.60;;;;;;;;;;5054262;28;20028;-58
2021/10/28 21:05:12;;;;;;;21.77;16.45;;;;;;;;;;5054321;28;20029;-57
2021/10/28 21:07:43;;;;;;;20.02;15.18;;;;;;;;;;5053424;28;20033;-58
2021/10/28 21:10:13;;;;;;;22.88;14.43;;;;;;;;;;5054676;28;20463;-58
2021/10/28 21:12:39;;;;;;;20.05;15.98;;;;;;;;;;5054380;28;20033;-58
2021/10/28 21:15:06;;;;;;;20.98;13.95;;;;;;;;;;5053944;28;20374;-58
2021/10/28 21:17:32;;;;;;;22.95;16.55;;;;;;;;;;5053299;28;20482;-58
2021/10/28 21:19:58;;;;;;;23.38;15.45;;;;;;;;;;5054175;28;20382;-58
2021/10/28 21:22:25;;;;;;;18.48;15.65;;;;;;;;;;5054754;28;20075;-58
2021/10/28 21:24:51;;;;;;;18.05;13.90;;;;;;;;;;5053839;28;20063;-58
2021/10/28 21:27:18;;;;;;;20.95;15.73;;;;;;;;;;5053406;28;20054;-57
2021/10/28 21:29:44;;;;;;;15.38;13.77;;;;;;;;;;5053704;28;20029;-58
2021/10/28 21:32:10;;;;;;;20.77;14.20;;;;;;;;;;5053799;28;20032;-58
2021/10/28 21:34:37;;;;;;;17.75;15.73;;;;;;;;;;5053741;28;20021;-58
2021/10/28 21:37:04;;;;;;;20.13;14.45;;;;;;;;;;5053100;28;20044;-58
2021/10/28 21:39:30;;;;;;;18.73;13.90;;;;;;;;;;5052978;28;20025;-58
2021/10/28 21:41:56;;;;;;;23.25;15.57;;;;;;;;;;5053789;28;20043;-58
2021/10/28 21:44:22;;;;;;;18.13;14.98;;;;;;;;;;5053788;28;20033;-57
2021/10/28 21:46:48;;;;;;;19.65;16.05;;;;;;;;;;5052876;28;20120;-58
2021/10/28 21:49:15;;;;;;;17.15;14.75;;;;;;;;;;5053535;28;20083;-57
2021/10/28 21:51:43;;;;;;;22.60;15.75;;;;;;;;;;5053355;28;20044;-58
2021/10/28 21:54:27;;;;;;;22.02;16.70;;;;;;;;;;5053580;28;20033;-58
2021/10/28 21:56:56;;;;;;;20.77;15.93;;;;;;;;;;5052841;28;20039;-57
2021/10/28 22:04:36;;;;;;;24.23;15.60;;;;;;;;;;5053057;28;20116;-58
2021/10/28 22:26:11;;;;;;;24.13;18.75;;;;;;;;;;5052572;28;20040;-59
2021/10/28 22:28:37;;;;;;;20.27;17.90;;;;;;;;;;5052471;28;20029;-58
2021/10/28 22:31:03;;;;;;;24.85;16.75;;;;;;;;;;5052570;28;20048;-57
2021/10/28 22:33:29;;;;;;;22.00;17.90;;;;;;;;;;5052830;28;20033;-57
2021/10/28 22:39:02;;;;;;;23.30;16.95;;;;;;;;;;5010460;28;20038;-58
2021/10/28 22:41:29;;;;;;;22.55;17.73;;;;;;;;;;5045481;28;20048;-57
2021/10/28 22:43:55;;;;;;;22.20;16.85;;;;;;;;;;5052632;28;20613;-58
2021/10/28 22:46:21;;;;;;;22.88;18.10;;;;;;;;;;5051828;28;20303;-59
2021/10/28 22:48:47;;;;;;;24.38;15.93;;;;;;;;;;5052467;28;20036;-58
2021/10/28 22:51:14;;;;;;;22.40;18.25;;;;;;;;;;5052112;28;20374;-58
2021/10/28 22:53:41;;;;;;;21.92;17.35;;;;;;;;;;5052311;28;20178;-58
2021/10/28 22:56:07;;;;;;;25.08;18.45;;;;;;;;;;5051942;28;20434;-56
2021/10/28 22:58:36;;;;;;;27.60;18.23;;;;;;;;;;5051922;28;20489;-58
2021/10/28 23:01:55;;;;;;;21.20;17.90;;;;;;;;;;5052213;28;20076;-58
2021/10/28 23:04:06;;;;;;;28.35;17.42;;;;;;;;;;5029168;28;20040;-58
2021/10/28 23:12:19;;;;;;;18.33;15.38;;;;;;;;;;5032324;28;20075;-57
2021/10/28 23:22:53;;;;;;;19.45;16.88;;;;;;;;;;5032409;28;20090;-58
2021/10/28 23:25:20;;;;;;;20.38;16.33;;;;;;;;;;5031721;28;20120;-58
2021/10/28 23:27:46;;;;;;;21.08;16.10;;;;;;;;;;5031357;28;20080;-58
2021/10/28 23:30:12;;;;;;;22.40;16.20;;;;;;;;;;5031977;28;20487;-55
2021/10/28 23:32:38;;;;;;;21.27;16.67;;;;;;;;;;5031931;28;20032;-57
2021/10/28 23:35:04;;;;;;;22.27;17.35;;;;;;;;;;5031601;28;20463;-57
2021/10/28 23:37:30;;;;;;;21.00;15.68;;;;;;;;;;5031100;28;20417;-58
2021/10/28 23:39:56;;;;;;;18.98;15.63;;;;;;;;;;5031603;28;20029;-57
2021/10/28 23:42:22;;;;;;;23.17;17.92;;;;;;;;;;5032020;28;20028;-58
2021/10/28 23:44:48;;;;;;;24.08;17.38;;;;;;;;;;5031866;28;20449;-57
2021/10/28 23:47:14;;;;;;;23.25;16.83;;;;;;;;;;5031530;28;20036;-58
2021/10/28 23:49:40;;;;;;;20.00;14.52;;;;;;;;;;5031875;28;20464;-58
2021/10/28 23:52:06;;;;;;;22.33;16.77;;;;;;;;;;5031899;28;20029;-58
2021/10/28 23:54:32;;;;;;;20.92;17.77;;;;;;;;;;5031593;28;20108;-58
2021/10/28 23:56:58;;;;;;;22.15;16.55;;;;;;;;;;5031313;28;20057;-57
2021/10/28 23:59:23;;;;;;;22.95;16.00;;;;;;;;;;5031961;28;20068;-58
